sensor_id;sensor_type;location;lat;lon;timestamp;P1;durP1;ratioP1;P2;durP2;ratioP2
40286;SDS011;25998;46.604;13.610;2022-08-19T00:01:09;10.25;;;3.10;;
40286;SDS011;25998;46.604;13.610;2022-08-19T00:04:22;10.02;;;3.92;;
40286;SDS011;25998;46.604;13.610;2022-08-19T00:07:36;4.68;;;2.88;;
40286;SDS011;25998;46.604;13.610;2022-08-19T00:10:47;6.85;;;3.25;;
40286;SDS011;25998;46.604;13.610;2022-08-19T00:13:58;5.75;;;2.67;;
40286;SDS011;25998;46.604;13.610;2022-08-19T00:17:09;8.63;;;2.95;;
40286;SDS011;25998;46.604;13.610;2022-08-19T00:20:20;5.03;;;2.72;;
40286;SDS011;25998;46.604;13.610;2022-08-19T00:23:32;6.90;;;2.92;;
40286;SDS011;25998;46.604;13.610;2022-08-19T00:26:45;6.35;;;2.80;;
40286;SDS011;25998;46.604;13.610;2022-08-19T00:29:56;6.93;;;3.13;;
40286;SDS011;25998;46.604;13.610;2022-08-19T00:33:08;6.22;;;2.72;;
40286;SDS011;25998;46.604;13.610;2022-08-19T00:36:20;5.05;;;2.15;;
40286;SDS011;25998;46.604;13.610;2022-08-19T00:39:31;3.53;;;2.40;;
40286;SDS011;25998;46.604;13.610;2022-08-19T00:42:42;5.10;;;2.55;;
40286;SDS011;25998;46.604;13.610;2022-08-19T00:45:53;6.35;;;2.45;;
40286;SDS011;25998;46.604;13.610;2022-08-19T00:49:11;5.20;;;2.40;;
40286;SDS011;25998;46.604;13.610;2022-08-19T00:52:36;6.70;;;2.70;;
40286;SDS011;25998;46.604;13.610;2022-08-19T00:55:58;5.90;;;2.60;;
40286;SDS011;25998;46.604;13.610;2022-08-19T00:59:11;4.68;;;2.30;;
40286;SDS011;25998;46.604;13.610;2022-08-19T01:02:22;6.57;;;2.50;;
40286;SDS011;25998;46.604;13.610;2022-08-19T01:05:34;7.45;;;2.60;;
40286;SDS011;25998;46.604;13.610;2022-08-19T01:08:46;6.25;;;2.78;;
40286;SDS011;25998;46.604;13.610;2022-08-19T01:11:57;5.78;;;2.88;;
40286;SDS011;25998;46.604;13.610;2022-08-19T01:15:09;5.85;;;2.90;;
40286;SDS011;25998;46.604;13.610;2022-08-19T01:18:21;5.25;;;2.58;;
40286;SDS011;25998;46.604;13.610;2022-08-19T01:21:35;6.32;;;2.83;;
40286;SDS011;25998;46.604;13.610;2022-08-19T01:24:51;3.47;;;2.40;;
40286;SDS011;25998;46.604;13.610;2022-08-19T01:28:02;6.85;;;2.38;;
40286;SDS011;25998;46.604;13.610;2022-08-19T01:31:14;5.38;;;2.63;;
40286;SDS011;25998;46.604;13.610;2022-08-19T01:34:27;5.25;;;2.50;;
40286;SDS011;25998;46.604;13.610;2022-08-19T01:37:41;5.15;;;2.30;;
40286;SDS011;25998;46.604;13.610;2022-08-19T01:41:04;5.15;;;3.17;;
40286;SDS011;25998;46.604;13.610;2022-08-19T01:44:16;4.75;;;2.70;;
40286;SDS011;25998;46.604;13.610;2022-08-19T01:47:30;6.05;;;2.83;;
40286;SDS011;25998;46.604;13.610;2022-08-19T01:50:45;8.55;;;3.53;;
40286;SDS011;25998;46.604;13.610;2022-08-19T01:53:57;6.25;;;2.85;;
40286;SDS011;25998;46.604;13.610;2022-08-19T01:57:10;3.97;;;2.67;;
40286;SDS011;25998;46.604;13.610;2022-08-19T02:00:26;5.85;;;3.38;;
40286;SDS011;25998;46.604;13.610;2022-08-19T02:03:39;4.50;;;2.83;;
40286;SDS011;25998;46.604;13.610;2022-08-19T02:06:51;4.28;;;2.70;;
40286;SDS011;25998;46.604;13.610;2022-08-19T02:10:03;4.63;;;3.42;;
40286;SDS011;25998;46.604;13.610;2022-08-19T02:13:16;7.88;;;3.17;;
40286;SDS011;25998;46.604;13.610;2022-08-19T02:16:27;6.28;;;3.03;;
40286;SDS011;25998;46.604;13.610;2022-08-19T02:19:39;4.93;;;3.00;;
40286;SDS011;25998;46.604;13.610;2022-08-19T02:22:50;6.93;;;2.97;;
40286;SDS011;25998;46.604;13.610;2022-08-19T02:26:01;5.72;;;2.55;;
40286;SDS011;25998;46.604;13.610;2022-08-19T02:29:12;7.05;;;3.58;;
40286;SDS011;25998;46.604;13.610;2022-08-19T02:32:23;7.07;;;2.95;;
40286;SDS011;25998;46.604;13.610;2022-08-19T02:35:34;4.40;;;3.13;;
40286;SDS011;25998;46.604;13.610;2022-08-19T02:38:45;6.53;;;3.10;;
40286;SDS011;25998;46.604;13.610;2022-08-19T02:41:56;7.47;;;3.45;;
40286;SDS011;25998;46.604;13.610;2022-08-19T02:45:09;8.00;;;3.28;;
40286;SDS011;25998;46.604;13.610;2022-08-19T02:48:21;6.95;;;3.22;;
40286;SDS011;25998;46.604;13.610;2022-08-19T02:51:38;8.65;;;3.17;;
40286;SDS011;25998;46.604;13.610;2022-08-19T02:54:50;5.60;;;2.67;;
40286;SDS011;25998;46.604;13.610;2022-08-19T02:58:01;5.05;;;2.90;;
40286;SDS011;25998;46.604;13.610;2022-08-19T03:01:19;6.43;;;2.88;;
40286;SDS011;25998;46.604;13.610;2022-08-19T03:04:32;4.68;;;2.60;;
40286;SDS011;25998;46.604;13.610;2022-08-19T03:07:43;4.85;;;2.75;;
40286;SDS011;25998;46.604;13.610;2022-08-19T03:10:56;10.43;;;2.70;;
40286;SDS011;25998;46.604;13.610;2022-08-19T03:14:07;8.07;;;2.88;;
40286;SDS011;25998;46.604;13.610;2022-08-19T03:17:19;4.88;;;2.20;;
40286;SDS011;25998;46.604;13.610;2022-08-19T03:20:31;6.15;;;2.28;;
40286;SDS011;25998;46.604;13.610;2022-08-19T03:23:43;8.05;;;2.63;;
40286;SDS011;25998;46.604;13.610;2022-08-19T03:26:54;6.68;;;2.70;;
40286;SDS011;25998;46.604;13.610;2022-08-19T03:30:09;7.55;;;3.10;;
40286;SDS011;25998;46.604;13.610;2022-08-19T03:33:24;7.05;;;2.70;;
40286;SDS011;25998;46.604;13.610;2022-08-19T03:36:35;5.93;;;3.17;;
40286;SDS011;25998;46.604;13.610;2022-08-19T03:39:46;7.35;;;2.88;;
40286;SDS011;25998;46.604;13.610;2022-08-19T03:42:57;7.15;;;2.50;;
40286;SDS011;25998;46.604;13.610;2022-08-19T03:46:10;5.57;;;2.50;;
40286;SDS011;25998;46.604;13.610;2022-08-19T03:49:23;5.07;;;2.70;;
40286;SDS011;25998;46.604;13.610;2022-08-19T03:52:37;4.60;;;2.30;;
40286;SDS011;25998;46.604;13.610;2022-08-19T03:55:49;4.75;;;2.63;;
40286;SDS011;25998;46.604;13.610;2022-08-19T03:59:04;6.97;;;3.20;;
40286;SDS011;25998;46.604;13.610;2022-08-19T04:02:16;5.60;;;2.70;;
40286;SDS011;25998;46.604;13.610;2022-08-19T04:05:28;6.63;;;3.20;;
40286;SDS011;25998;46.604;13.610;2022-08-19T04:08:39;4.78;;;2.70;;
40286;SDS011;25998;46.604;13.610;2022-08-19T04:11:52;6.65;;;2.50;;
40286;SDS011;25998;46.604;13.610;2022-08-19T04:15:05;6.93;;;2.60;;
40286;SDS011;25998;46.604;13.610;2022-08-19T04:18:21;7.50;;;2.88;;
40286;SDS011;25998;46.604;13.610;2022-08-19T04:21:32;7.10;;;2.75;;
40286;SDS011;25998;46.604;13.610;2022-08-19T04:24:44;5.57;;;2.80;;
40286;SDS011;25998;46.604;13.610;2022-08-19T04:27:55;6.63;;;2.72;;
40286;SDS011;25998;46.604;13.610;2022-08-19T04:31:06;6.43;;;2.30;;
40286;SDS011;25998;46.604;13.610;2022-08-19T04:34:26;5.47;;;2.50;;
40286;SDS011;25998;46.604;13.610;2022-08-19T04:37:38;4.65;;;2.40;;
40286;SDS011;25998;46.604;13.610;2022-08-19T04:40:50;4.90;;;2.38;;
40286;SDS011;25998;46.604;13.610;2022-08-19T04:44:20;5.18;;;2.30;;
40286;SDS011;25998;46.604;13.610;2022-08-19T04:47:31;5.80;;;3.10;;
40286;SDS011;25998;46.604;13.610;2022-08-19T04:50:43;5.25;;;2.58;;
40286;SDS011;25998;46.604;13.610;2022-08-19T04:53:54;4.35;;;3.15;;
40286;SDS011;25998;46.604;13.610;2022-08-19T04:57:06;5.50;;;2.40;;
40286;SDS011;25998;46.604;13.610;2022-08-19T05:00:18;5.93;;;2.97;;
40286;SDS011;25998;46.604;13.610;2022-08-19T05:03:29;8.10;;;2.80;;
40286;SDS011;25998;46.604;13.610;2022-08-19T05:06:44;5.28;;;2.85;;
40286;SDS011;25998;46.604;13.610;2022-08-19T05:09:55;5.70;;;2.67;;
40286;SDS011;25998;46.604;13.610;2022-08-19T05:13:06;5.07;;;2.20;;
40286;SDS011;25998;46.604;13.610;2022-08-19T05:16:20;5.20;;;2.20;;
40286;SDS011;25998;46.604;13.610;2022-08-19T05:19:31;5.03;;;2.63;;
40286;SDS011;25998;46.604;13.610;2022-08-19T05:23:01;4.80;;;2.67;;
40286;SDS011;25998;46.604;13.610;2022-08-19T05:26:13;5.63;;;2.42;;
40286;SDS011;25998;46.604;13.610;2022-08-19T05:29:25;6.22;;;2.80;;
40286;SDS011;25998;46.604;13.610;2022-08-19T05:32:38;5.95;;;2.45;;
40286;SDS011;25998;46.604;13.610;2022-08-19T05:35:49;6.28;;;2.47;;
40286;SDS011;25998;46.604;13.610;2022-08-19T05:39:02;6.15;;;2.50;;
40286;SDS011;25998;46.604;13.610;2022-08-19T05:42:14;8.40;;;2.97;;
40286;SDS011;25998;46.604;13.610;2022-08-19T05:45:48;8.35;;;3.05;;
40286;SDS011;25998;46.604;13.610;2022-08-19T05:49:00;4.95;;;2.55;;
40286;SDS011;25998;46.604;13.610;2022-08-19T05:52:12;6.55;;;2.30;;
40286;SDS011;25998;46.604;13.610;2022-08-19T05:55:25;5.05;;;2.42;;
40286;SDS011;25998;46.604;13.610;2022-08-19T05:58:36;7.45;;;2.25;;
40286;SDS011;25998;46.604;13.610;2022-08-19T06:01:50;5.75;;;2.22;;
40286;SDS011;25998;46.604;13.610;2022-08-19T06:05:03;4.95;;;2.20;;
40286;SDS011;25998;46.604;13.610;2022-08-19T06:08:16;4.18;;;2.30;;
40286;SDS011;25998;46.604;13.610;2022-08-19T06:11:32;6.50;;;2.33;;
40286;SDS011;25998;46.604;13.610;2022-08-19T06:14:55;7.45;;;2.45;;
40286;SDS011;25998;46.604;13.610;2022-08-19T06:18:06;7.18;;;2.30;;
40286;SDS011;25998;46.604;13.610;2022-08-19T06:21:20;5.07;;;2.05;;
40286;SDS011;25998;46.604;13.610;2022-08-19T06:24:33;8.35;;;2.10;;
40286;SDS011;25998;46.604;13.610;2022-08-19T06:27:44;4.57;;;2.05;;
40286;SDS011;25998;46.604;13.610;2022-08-19T06:30:58;5.75;;;2.15;;
40286;SDS011;25998;46.604;13.610;2022-08-19T06:34:13;3.83;;;2.05;;
40286;SDS011;25998;46.604;13.610;2022-08-19T06:37:24;5.13;;;2.13;;
40286;SDS011;25998;46.604;13.610;2022-08-19T06:40:35;5.95;;;2.22;;
40286;SDS011;25998;46.604;13.610;2022-08-19T06:43:48;5.75;;;2.00;;
40286;SDS011;25998;46.604;13.610;2022-08-19T06:46:59;6.22;;;2.42;;
40286;SDS011;25998;46.604;13.610;2022-08-19T06:50:12;4.80;;;2.25;;
40286;SDS011;25998;46.604;13.610;2022-08-19T06:53:23;5.45;;;2.40;;
40286;SDS011;25998;46.604;13.610;2022-08-19T06:56:34;4.75;;;2.05;;
40286;SDS011;25998;46.604;13.610;2022-08-19T06:59:46;3.90;;;2.20;;
40286;SDS011;25998;46.604;13.610;2022-08-19T07:02:57;6.82;;;2.10;;
40286;SDS011;25998;46.604;13.610;2022-08-19T07:06:10;4.03;;;2.00;;
40286;SDS011;25998;46.604;13.610;2022-08-19T07:09:22;5.18;;;2.03;;
40286;SDS011;25998;46.604;13.610;2022-08-19T07:12:33;5.38;;;2.10;;
40286;SDS011;25998;46.604;13.610;2022-08-19T07:15:44;3.55;;;1.88;;
40286;SDS011;25998;46.604;13.610;2022-08-19T07:18:57;4.05;;;2.63;;
40286;SDS011;25998;46.604;13.610;2022-08-19T07:22:09;4.32;;;2.42;;
40286;SDS011;25998;46.604;13.610;2022-08-19T07:25:20;5.18;;;2.63;;
40286;SDS011;25998;46.604;13.610;2022-08-19T07:28:32;7.55;;;4.18;;
40286;SDS011;25998;46.604;13.610;2022-08-19T07:31:50;4.80;;;2.75;;
40286;SDS011;25998;46.604;13.610;2022-08-19T07:35:01;6.35;;;3.03;;
40286;SDS011;25998;46.604;13.610;2022-08-19T07:38:13;6.10;;;3.33;;
40286;SDS011;25998;46.604;13.610;2022-08-19T07:41:25;3.58;;;2.13;;
40286;SDS011;25998;46.604;13.610;2022-08-19T07:44:40;4.82;;;2.40;;
40286;SDS011;25998;46.604;13.610;2022-08-19T07:47:51;6.38;;;2.40;;
40286;SDS011;25998;46.604;13.610;2022-08-19T07:51:04;5.05;;;2.40;;
40286;SDS011;25998;46.604;13.610;2022-08-19T07:54:18;4.53;;;2.28;;
40286;SDS011;25998;46.604;13.610;2022-08-19T07:57:31;3.67;;;2.30;;
40286;SDS011;25998;46.604;13.610;2022-08-19T08:00:42;5.40;;;3.15;;
40286;SDS011;25998;46.604;13.610;2022-08-19T08:03:55;7.25;;;3.20;;
40286;SDS011;25998;46.604;13.610;2022-08-19T08:07:25;5.03;;;3.65;;
40286;SDS011;25998;46.604;13.610;2022-08-19T08:10:54;6.83;;;4.10;;
40286;SDS011;25998;46.604;13.610;2022-08-19T08:14:09;5.13;;;3.10;;
40286;SDS011;25998;46.604;13.610;2022-08-19T08:17:22;5.63;;;2.83;;
40286;SDS011;25998;46.604;13.610;2022-08-19T08:20:34;5.82;;;3.17;;
40286;SDS011;25998;46.604;13.610;2022-08-19T08:23:45;4.70;;;3.72;;
40286;SDS011;25998;46.604;13.610;2022-08-19T08:26:58;3.92;;;2.83;;
40286;SDS011;25998;46.604;13.610;2022-08-19T08:30:11;4.55;;;3.28;;
40286;SDS011;25998;46.604;13.610;2022-08-19T08:33:28;5.53;;;2.85;;
40286;SDS011;25998;46.604;13.610;2022-08-19T08:36:41;4.28;;;2.33;;
40286;SDS011;25998;46.604;13.610;2022-08-19T08:39:54;4.97;;;2.60;;
40286;SDS011;25998;46.604;13.610;2022-08-19T08:50:05;4.75;;;3.35;;
40286;SDS011;25998;46.604;13.610;2022-08-19T08:53:17;6.88;;;4.32;;
40286;SDS011;25998;46.604;13.610;2022-08-19T08:56:29;5.40;;;3.80;;
40286;SDS011;25998;46.604;13.610;2022-08-19T08:59:41;6.25;;;3.30;;
40286;SDS011;25998;46.604;13.610;2022-08-19T09:03:01;7.03;;;3.65;;
40286;SDS011;25998;46.604;13.610;2022-08-19T09:09:40;5.78;;;3.42;;
40286;SDS011;25998;46.604;13.610;2022-08-19T09:12:59;5.00;;;3.00;;
40286;SDS011;25998;46.604;13.610;2022-08-19T09:16:22;7.13;;;3.08;;
40286;SDS011;25998;46.604;13.610;2022-08-19T09:19:46;4.47;;;3.35;;
40286;SDS011;25998;46.604;13.610;2022-08-19T09:22:59;5.72;;;3.15;;
40286;SDS011;25998;46.604;13.610;2022-08-19T09:26:14;6.88;;;4.38;;
40286;SDS011;25998;46.604;13.610;2022-08-19T09:29:27;8.55;;;4.03;;
40286;SDS011;25998;46.604;13.610;2022-08-19T09:32:39;6.20;;;4.68;;
40286;SDS011;25998;46.604;13.610;2022-08-19T09:36:01;6.03;;;4.32;;
40286;SDS011;25998;46.604;13.610;2022-08-19T09:39:13;6.22;;;4.38;;
40286;SDS011;25998;46.604;13.610;2022-08-19T09:42:24;7.13;;;4.65;;
40286;SDS011;25998;46.604;13.610;2022-08-19T09:45:35;6.50;;;4.35;;
40286;SDS011;25998;46.604;13.610;2022-08-19T09:48:46;6.93;;;3.90;;
40286;SDS011;25998;46.604;13.610;2022-08-19T09:51:59;6.53;;;3.63;;
40286;SDS011;25998;46.604;13.610;2022-08-19T09:55:10;5.03;;;3.45;;
40286;SDS011;25998;46.604;13.610;2022-08-19T09:58:22;5.80;;;3.95;;
40286;SDS011;25998;46.604;13.610;2022-08-19T10:01:37;4.32;;;3.45;;
40286;SDS011;25998;46.604;13.610;2022-08-19T10:04:48;6.55;;;5.57;;
40286;SDS011;25998;46.604;13.610;2022-08-19T10:08:20;7.15;;;5.60;;
40286;SDS011;25998;46.604;13.610;2022-08-19T10:11:36;6.38;;;5.10;;
40286;SDS011;25998;46.604;13.610;2022-08-19T10:14:50;4.53;;;4.10;;
40286;SDS011;25998;46.604;13.610;2022-08-19T10:18:03;5.78;;;3.53;;
40286;SDS011;25998;46.604;13.610;2022-08-19T10:21:21;4.30;;;3.42;;
40286;SDS011;25998;46.604;13.610;2022-08-19T10:24:34;6.60;;;3.20;;
40286;SDS011;25998;46.604;13.610;2022-08-19T10:27:48;3.90;;;2.70;;
40286;SDS011;25998;46.604;13.610;2022-08-19T10:31:03;5.03;;;2.75;;
40286;SDS011;25998;46.604;13.610;2022-08-19T10:34:22;5.18;;;3.35;;
40286;SDS011;25998;46.604;13.610;2022-08-19T10:37:33;3.95;;;2.88;;
40286;SDS011;25998;46.604;13.610;2022-08-19T10:40:46;5.20;;;3.00;;
40286;SDS011;25998;46.604;13.610;2022-08-19T10:43:59;5.60;;;2.92;;
40286;SDS011;25998;46.604;13.610;2022-08-19T10:47:12;5.22;;;3.00;;
40286;SDS011;25998;46.604;13.610;2022-08-19T10:50:26;6.30;;;2.83;;
40286;SDS011;25998;46.604;13.610;2022-08-19T10:53:56;3.55;;;2.60;;
40286;SDS011;25998;46.604;13.610;2022-08-19T10:57:08;3.80;;;2.25;;
40286;SDS011;25998;46.604;13.610;2022-08-19T11:00:20;3.63;;;2.60;;
40286;SDS011;25998;46.604;13.610;2022-08-19T11:03:34;3.92;;;2.22;;
40286;SDS011;25998;46.604;13.610;2022-08-19T11:06:46;4.60;;;2.47;;
40286;SDS011;25998;46.604;13.610;2022-08-19T11:09:58;4.10;;;2.08;;
40286;SDS011;25998;46.604;13.610;2022-08-19T11:13:09;2.92;;;1.70;;
40286;SDS011;25998;46.604;13.610;2022-08-19T11:16:21;2.88;;;1.92;;
40286;SDS011;25998;46.604;13.610;2022-08-19T11:19:34;2.97;;;2.03;;
40286;SDS011;25998;46.604;13.610;2022-08-19T11:22:45;2.63;;;1.65;;
40286;SDS011;25998;46.604;13.610;2022-08-19T11:25:56;3.63;;;1.88;;
40286;SDS011;25998;46.604;13.610;2022-08-19T11:29:08;4.60;;;2.20;;
40286;SDS011;25998;46.604;13.610;2022-08-19T11:32:21;3.85;;;2.15;;
40286;SDS011;25998;46.604;13.610;2022-08-19T11:35:32;3.90;;;2.13;;
40286;SDS011;25998;46.604;13.610;2022-08-19T11:38:52;3.92;;;2.60;;
40286;SDS011;25998;46.604;13.610;2022-08-19T11:42:04;3.35;;;1.90;;
40286;SDS011;25998;46.604;13.610;2022-08-19T11:45:36;4.32;;;2.17;;
40286;SDS011;25998;46.604;13.610;2022-08-19T11:48:47;3.95;;;2.25;;
40286;SDS011;25998;46.604;13.610;2022-08-19T11:51:59;3.58;;;2.50;;
40286;SDS011;25998;46.604;13.610;2022-08-19T11:55:12;2.83;;;1.90;;
40286;SDS011;25998;46.604;13.610;2022-08-19T11:58:23;2.92;;;2.10;;
40286;SDS011;25998;46.604;13.610;2022-08-19T12:01:39;4.18;;;2.55;;
40286;SDS011;25998;46.604;13.610;2022-08-19T12:04:52;4.40;;;2.40;;
40286;SDS011;25998;46.604;13.610;2022-08-19T12:08:04;3.53;;;2.08;;
40286;SDS011;25998;46.604;13.610;2022-08-19T12:11:15;4.20;;;2.30;;
40286;SDS011;25998;46.604;13.610;2022-08-19T12:14:26;3.78;;;2.25;;
40286;SDS011;25998;46.604;13.610;2022-08-19T12:17:38;3.80;;;2.28;;
40286;SDS011;25998;46.604;13.610;2022-08-19T12:20:50;5.90;;;2.67;;
40286;SDS011;25998;46.604;13.610;2022-08-19T12:24:03;3.38;;;2.25;;
40286;SDS011;25998;46.604;13.610;2022-08-19T12:38:39;5.22;;;2.50;;
40286;SDS011;25998;46.604;13.610;2022-08-19T12:41:59;7.50;;;2.45;;
40286;SDS011;25998;46.604;13.610;2022-08-19T12:45:11;4.88;;;2.53;;
40286;SDS011;25998;46.604;13.610;2022-08-19T12:48:23;3.58;;;1.63;;
40286;SDS011;25998;46.604;13.610;2022-08-19T12:55:33;5.10;;;2.40;;
40286;SDS011;25998;46.604;13.610;2022-08-19T12:58:46;5.00;;;1.98;;
40286;SDS011;25998;46.604;13.610;2022-08-19T13:01:57;5.13;;;2.17;;
40286;SDS011;25998;46.604;13.610;2022-08-19T13:05:09;4.90;;;2.05;;
40286;SDS011;25998;46.604;13.610;2022-08-19T13:08:21;3.58;;;1.40;;
40286;SDS011;25998;46.604;13.610;2022-08-19T13:11:32;5.07;;;1.90;;
40286;SDS011;25998;46.604;13.610;2022-08-19T13:14:43;6.32;;;1.52;;
40286;SDS011;25998;46.604;13.610;2022-08-19T13:18:02;3.70;;;1.40;;
40286;SDS011;25998;46.604;13.610;2022-08-19T13:21:13;3.05;;;1.10;;
40286;SDS011;25998;46.604;13.610;2022-08-19T13:24:25;3.55;;;1.17;;
40286;SDS011;25998;46.604;13.610;2022-08-19T13:27:36;3.67;;;1.70;;
40286;SDS011;25998;46.604;13.610;2022-08-19T13:30:48;5.97;;;1.85;;
40286;SDS011;25998;46.604;13.610;2022-08-19T13:34:18;5.35;;;1.92;;
40286;SDS011;25998;46.604;13.610;2022-08-19T13:37:37;4.90;;;1.70;;
40286;SDS011;25998;46.604;13.610;2022-08-19T13:40:54;4.15;;;1.40;;
40286;SDS011;25998;46.604;13.610;2022-08-19T13:44:05;3.63;;;1.52;;
40286;SDS011;25998;46.604;13.610;2022-08-19T13:47:16;2.72;;;1.45;;
40286;SDS011;25998;46.604;13.610;2022-08-19T13:50:28;2.80;;;1.17;;
40286;SDS011;25998;46.604;13.610;2022-08-19T13:53:41;4.03;;;1.20;;
40286;SDS011;25998;46.604;13.610;2022-08-19T13:56:55;3.75;;;1.50;;
40286;SDS011;25998;46.604;13.610;2022-08-19T14:00:08;4.05;;;1.35;;
40286;SDS011;25998;46.604;13.610;2022-08-19T14:03:22;2.65;;;1.50;;
40286;SDS011;25998;46.604;13.610;2022-08-19T14:06:33;3.05;;;1.20;;
40286;SDS011;25998;46.604;13.610;2022-08-19T14:09:44;3.75;;;1.20;;
40286;SDS011;25998;46.604;13.610;2022-08-19T14:12:59;2.83;;;1.40;;
40286;SDS011;25998;46.604;13.610;2022-08-19T14:16:12;2.47;;;1.40;;
40286;SDS011;25998;46.604;13.610;2022-08-19T14:19:24;4.57;;;1.85;;
40286;SDS011;25998;46.604;13.610;2022-08-19T14:22:35;2.47;;;1.38;;
40286;SDS011;25998;46.604;13.610;2022-08-19T14:25:48;3.35;;;1.63;;
40286;SDS011;25998;46.604;13.610;2022-08-19T14:28:59;5.32;;;1.83;;
40286;SDS011;25998;46.604;13.610;2022-08-19T14:32:11;3.40;;;1.40;;
40286;SDS011;25998;46.604;13.610;2022-08-19T14:35:22;2.88;;;1.33;;
40286;SDS011;25998;46.604;13.610;2022-08-19T14:38:33;2.63;;;1.63;;
40286;SDS011;25998;46.604;13.610;2022-08-19T14:41:47;5.00;;;1.83;;
40286;SDS011;25998;46.604;13.610;2022-08-19T14:44:58;3.25;;;1.42;;
40286;SDS011;25998;46.604;13.610;2022-08-19T14:48:09;3.95;;;1.67;;
40286;SDS011;25998;46.604;13.610;2022-08-19T14:51:21;3.92;;;1.80;;
40286;SDS011;25998;46.604;13.610;2022-08-19T14:54:35;2.72;;;1.58;;
40286;SDS011;25998;46.604;13.610;2022-08-19T14:57:49;3.22;;;1.88;;
40286;SDS011;25998;46.604;13.610;2022-08-19T15:01:00;3.28;;;1.35;;
40286;SDS011;25998;46.604;13.610;2022-08-19T15:04:11;4.20;;;1.50;;
40286;SDS011;25998;46.604;13.610;2022-08-19T15:07:24;2.92;;;1.60;;
40286;SDS011;25998;46.604;13.610;2022-08-19T15:10:35;2.50;;;1.50;;
40286;SDS011;25998;46.604;13.610;2022-08-19T15:13:49;3.03;;;1.60;;
40286;SDS011;25998;46.604;13.610;2022-08-19T15:17:02;3.63;;;1.60;;
40286;SDS011;25998;46.604;13.610;2022-08-19T15:20:18;3.33;;;1.45;;
40286;SDS011;25998;46.604;13.610;2022-08-19T15:23:31;3.13;;;1.50;;
40286;SDS011;25998;46.604;13.610;2022-08-19T15:26:42;3.03;;;1.40;;
40286;SDS011;25998;46.604;13.610;2022-08-19T15:29:54;3.00;;;1.38;;
40286;SDS011;25998;46.604;13.610;2022-08-19T15:33:07;4.28;;;1.50;;
40286;SDS011;25998;46.604;13.610;2022-08-19T15:36:17;2.30;;;1.33;;
40286;SDS011;25998;46.604;13.610;2022-08-19T15:39:30;3.35;;;1.15;;
40286;SDS011;25998;46.604;13.610;2022-08-19T15:42:46;2.97;;;1.58;;
40286;SDS011;25998;46.604;13.610;2022-08-19T15:45:59;3.55;;;1.60;;
40286;SDS011;25998;46.604;13.610;2022-08-19T15:49:10;2.72;;;1.35;;
40286;SDS011;25998;46.604;13.610;2022-08-19T15:52:22;3.10;;;1.27;;
40286;SDS011;25998;46.604;13.610;2022-08-19T15:55:35;2.67;;;1.10;;
40286;SDS011;25998;46.604;13.610;2022-08-19T15:58:50;4.32;;;1.23;;
40286;SDS011;25998;46.604;13.610;2022-08-19T16:02:20;4.22;;;1.45;;
40286;SDS011;25998;46.604;13.610;2022-08-19T16:06:04;3.13;;;1.30;;
40286;SDS011;25998;46.604;13.610;2022-08-19T16:09:34;3.03;;;1.33;;
40286;SDS011;25998;46.604;13.610;2022-08-19T16:12:45;3.13;;;1.35;;
40286;SDS011;25998;46.604;13.610;2022-08-19T16:15:58;2.38;;;1.60;;
40286;SDS011;25998;46.604;13.610;2022-08-19T16:19:13;2.10;;;1.30;;
40286;SDS011;25998;46.604;13.610;2022-08-19T16:22:31;2.53;;;1.40;;
40286;SDS011;25998;46.604;13.610;2022-08-19T16:25:43;2.75;;;1.23;;
40286;SDS011;25998;46.604;13.610;2022-08-19T16:28:54;2.63;;;1.40;;
40286;SDS011;25998;46.604;13.610;2022-08-19T16:32:10;2.47;;;1.25;;
40286;SDS011;25998;46.604;13.610;2022-08-19T16:35:21;2.35;;;1.45;;
40286;SDS011;25998;46.604;13.610;2022-08-19T16:38:32;3.65;;;1.50;;
40286;SDS011;25998;46.604;13.610;2022-08-19T16:41:44;2.38;;;1.35;;
40286;SDS011;25998;46.604;13.610;2022-08-19T16:44:55;1.90;;;1.38;;
40286;SDS011;25998;46.604;13.610;2022-08-19T16:48:06;2.10;;;1.40;;
40286;SDS011;25998;46.604;13.610;2022-08-19T16:51:17;4.53;;;1.40;;
40286;SDS011;25998;46.604;13.610;2022-08-19T16:54:31;4.88;;;1.50;;
40286;SDS011;25998;46.604;13.610;2022-08-19T16:57:45;3.85;;;1.50;;
40286;SDS011;25998;46.604;13.610;2022-08-19T17:00:56;3.88;;;1.67;;
40286;SDS011;25998;46.604;13.610;2022-08-19T17:04:10;1.85;;;1.30;;
40286;SDS011;25998;46.604;13.610;2022-08-19T17:07:22;3.95;;;1.55;;
40286;SDS011;25998;46.604;13.610;2022-08-19T17:10:33;1.80;;;1.15;;
40286;SDS011;25998;46.604;13.610;2022-08-19T17:13:44;4.15;;;1.70;;
40286;SDS011;25998;46.604;13.610;2022-08-19T17:16:55;4.80;;;1.40;;
40286;SDS011;25998;46.604;13.610;2022-08-19T17:20:06;2.63;;;1.60;;
40286;SDS011;25998;46.604;13.610;2022-08-19T17:23:18;4.47;;;1.60;;
40286;SDS011;25998;46.604;13.610;2022-08-19T17:26:31;2.80;;;1.40;;
40286;SDS011;25998;46.604;13.610;2022-08-19T17:29:42;4.22;;;1.30;;
40286;SDS011;25998;46.604;13.610;2022-08-19T17:32:53;5.07;;;1.98;;
40286;SDS011;25998;46.604;13.610;2022-08-19T17:36:04;3.10;;;1.27;;
40286;SDS011;25998;46.604;13.610;2022-08-19T17:39:18;3.72;;;1.30;;
40286;SDS011;25998;46.604;13.610;2022-08-19T17:42:29;4.20;;;1.23;;
40286;SDS011;25998;46.604;13.610;2022-08-19T17:45:41;2.40;;;1.50;;
40286;SDS011;25998;46.604;13.610;2022-08-19T17:48:53;1.88;;;1.30;;
40286;SDS011;25998;46.604;13.610;2022-08-19T17:52:09;5.07;;;1.73;;
40286;SDS011;25998;46.604;13.610;2022-08-19T17:55:21;5.57;;;1.45;;
40286;SDS011;25998;46.604;13.610;2022-08-19T17:58:33;3.95;;;1.38;;
40286;SDS011;25998;46.604;13.610;2022-08-19T18:01:44;2.85;;;1.40;;
40286;SDS011;25998;46.604;13.610;2022-08-19T18:04:56;2.00;;;1.30;;
40286;SDS011;25998;46.604;13.610;2022-08-19T18:08:07;4.75;;;1.50;;
40286;SDS011;25998;46.604;13.610;2022-08-19T18:11:21;2.63;;;1.50;;
40286;SDS011;25998;46.604;13.610;2022-08-19T18:14:33;2.10;;;1.20;;
40286;SDS011;25998;46.604;13.610;2022-08-19T18:17:48;2.33;;;1.40;;
40286;SDS011;25998;46.604;13.610;2022-08-19T18:20:59;2.67;;;1.60;;
40286;SDS011;25998;46.604;13.610;2022-08-19T18:24:11;3.35;;;1.40;;
40286;SDS011;25998;46.604;13.610;2022-08-19T18:27:25;3.47;;;1.50;;
40286;SDS011;25998;46.604;13.610;2022-08-19T18:30:36;1.80;;;1.20;;
40286;SDS011;25998;46.604;13.610;2022-08-19T18:33:47;3.25;;;1.60;;
40286;SDS011;25998;46.604;13.610;2022-08-19T18:37:01;2.58;;;1.60;;
40286;SDS011;25998;46.604;13.610;2022-08-19T18:40:17;2.45;;;1.50;;
40286;SDS011;25998;46.604;13.610;2022-08-19T18:43:48;3.30;;;1.63;;
40286;SDS011;25998;46.604;13.610;2022-08-19T18:47:17;6.65;;;1.85;;
40286;SDS011;25998;46.604;13.610;2022-08-19T18:50:46;4.53;;;1.50;;
40286;SDS011;25998;46.604;13.610;2022-08-19T18:53:57;2.40;;;1.50;;
40286;SDS011;25998;46.604;13.610;2022-08-19T18:57:10;3.92;;;1.77;;
40286;SDS011;25998;46.604;13.610;2022-08-19T19:00:21;5.78;;;2.15;;
40286;SDS011;25998;46.604;13.610;2022-08-19T19:03:34;4.18;;;1.70;;
40286;SDS011;25998;46.604;13.610;2022-08-19T19:06:47;2.15;;;1.67;;
40286;SDS011;25998;46.604;13.610;2022-08-19T19:09:59;5.43;;;1.85;;
40286;SDS011;25998;46.604;13.610;2022-08-19T19:13:10;2.45;;;1.67;;
40286;SDS011;25998;46.604;13.610;2022-08-19T19:16:25;5.10;;;1.75;;
40286;SDS011;25998;46.604;13.610;2022-08-19T19:19:36;2.75;;;1.75;;
40286;SDS011;25998;46.604;13.610;2022-08-19T19:22:51;4.93;;;1.70;;
40286;SDS011;25998;46.604;13.610;2022-08-19T19:26:02;2.60;;;1.83;;
40286;SDS011;25998;46.604;13.610;2022-08-19T19:29:14;3.20;;;1.60;;
40286;SDS011;25998;46.604;13.610;2022-08-19T19:32:26;4.70;;;1.60;;